Huvudsida
METAR-TAF:

METAR-TAF

Flygplatser :

Rimini-Miramares flygplats

Rimini, Italien

latitud: 44-02N, longitud: 012-37E, höjd: 12 m

Aktuellt väderrapport

Denna rapport gjordes för 28 minuter sedan, klockan 14:20 UTC
Vind 5 kt från nordost, varierande mellan nord/nordost och ost
Temperatur 30°C
Fuktighet 52%
Tryck 1021 hPa
Sikt 10 km eller mer
Inga moln under 1 500 m eller inga cumulonimbus

METAR: LIPR 261420Z 05005KT 020V080 CAVOK 30/19 Q1021

Tid: 16:48 (14:48 UTC)

Väderprognos

Denna rapport gjordes för 48 minuter sedan, klockan 14:00 UTC
Prognos gäller från 26 kl. 15 UTC till 26 kl. 24 UTC
Vind 10 kt från nordost
Sikt 10 km eller mer
Inga moln under 1 500 m eller inga cumulonimbus
Blir
från 26 kl. 16 UTC till 26 kl. 18 UTC
Vind 5 kt varierande vindriktning

TAF: LIPR 261400Z 2615/2624 04010KT CAVOK BECMG 2616/2618 VRB05KT

Aktuella väderrapporter och prognoser från 4000 flygplatser (METAR- och TAF-rapporter).

De tillgängliga stationerna syns som gula och röda prickar på kartan.

För musen över prickarna för att se namnen på stationerna.

Klicka sedan för att få väderrapporter och prognoser.

För att ändra kartan: Klicka på de gröna knapparna med ett svart kors på för att zooma in; den gröna knappen med ett streck på för att zooma ut; eller på de gröna pilarna för angränsande kartor.


METAR-TAF: